createdAt,value
2023-03-20T06:00:37.481Z,7.80
2023-03-20T06:03:33.531Z,7.79
2023-03-20T06:06:08.247Z,7.79
2023-03-20T06:08:37.060Z,7.79
2023-03-20T06:11:04.411Z,7.87
2023-03-20T06:13:33.678Z,7.81
2023-03-20T06:16:01.941Z,7.77
2023-03-20T06:18:29.690Z,7.83
2023-03-20T06:20:57.658Z,7.83
2023-03-20T06:23:28.166Z,7.82
2023-03-20T06:25:55.912Z,7.83
2023-03-20T06:28:24.185Z,7.85
2023-03-20T06:31:00.810Z,7.86
2023-03-20T06:33:28.906Z,7.86
2023-03-20T06:36:01.212Z,7.85
2023-03-20T06:38:30.710Z,7.81
2023-03-20T06:40:59.197Z,7.86
2023-03-20T06:43:26.724Z,7.88
2023-03-20T06:45:53.777Z,7.90
2023-03-20T06:48:27.471Z,7.94
2023-03-20T06:50:54.811Z,7.93
2023-03-20T06:53:26.981Z,8.00
2023-03-20T06:56:04.557Z,8.03
2023-03-20T06:58:31.777Z,8.02
2023-03-20T07:00:58.576Z,8.05
2023-03-20T07:03:26.123Z,8.08
2023-03-20T07:05:53.736Z,8.15
2023-03-20T07:08:22.597Z,8.12
2023-03-20T07:10:50.116Z,8.09
2023-03-20T07:13:17.083Z,8.09
2023-03-20T07:16:01.157Z,8.10
2023-03-20T07:18:34.220Z,8.09
2023-03-20T07:21:03.450Z,8.04
2023-03-20T07:23:31.834Z,8.03
2023-03-20T07:26:02.614Z,8.02
2023-03-20T07:28:30.068Z,8.03
2023-03-20T07:31:20.269Z,8.05
2023-03-20T07:33:49.398Z,8.03
2023-03-20T07:36:16.208Z,8.00
2023-03-20T07:38:46.840Z,8.00
2023-03-20T07:41:15.047Z,8.01
2023-03-20T07:43:47.224Z,8.00
2023-03-20T07:46:21.741Z,8.01
2023-03-20T07:48:48.694Z,8.05
2023-03-20T07:51:15.890Z,8.11
2023-03-20T07:53:42.552Z,8.08
2023-03-20T07:56:10.622Z,8.07
2023-03-20T07:58:38.143Z,8.11
2023-03-20T08:01:04.944Z,8.16
2023-03-20T08:03:32.959Z,8.13
2023-03-20T08:05:59.951Z,8.14
2023-03-20T08:08:27.307Z,8.17
2023-03-20T08:10:54.312Z,8.18
2023-03-20T08:13:21.418Z,8.16
2023-03-20T08:15:48.544Z,8.21
2023-03-20T08:18:15.307Z,8.18
2023-03-20T08:20:43.059Z,8.22
2023-03-20T08:23:09.633Z,8.18
2023-03-20T08:25:37.083Z,8.26
2023-03-20T08:28:05.131Z,8.32
2023-03-20T08:30:31.879Z,8.38
2023-03-20T08:32:59.409Z,8.45
2023-03-20T08:35:46.006Z,8.42
2023-03-20T08:38:13.928Z,8.55
2023-03-20T08:40:42.388Z,8.62
2023-03-20T08:43:09.303Z,8.67
2023-03-20T08:45:48.388Z,8.78
2023-03-20T08:48:16.458Z,8.88
2023-03-20T08:50:44.695Z,8.86
2023-03-20T08:53:12.381Z,8.91
2023-03-20T08:55:39.075Z,8.96
2023-03-20T08:58:06.136Z,8.99
2023-03-20T09:00:33.673Z,9.07
2023-03-20T09:03:00.832Z,9.13
2023-03-20T09:05:28.139Z,9.18
2023-03-20T09:07:55.314Z,9.24
2023-03-20T09:10:22.025Z,9.26
2023-03-20T09:12:55.157Z,9.24
2023-03-20T09:15:22.380Z,9.26
2023-03-20T09:17:50.181Z,9.23
2023-03-20T09:20:16.977Z,9.26
2023-03-20T09:22:46.128Z,9.29
2023-03-20T09:25:13.359Z,9.26
2023-03-20T09:27:41.224Z,9.27
2023-03-20T09:30:13.139Z,9.28
2023-03-20T09:32:47.540Z,9.31
2023-03-20T09:38:01.719Z,9.24
2023-03-20T09:40:49.763Z,9.29
2023-03-20T09:43:52.074Z,9.32
2023-03-20T09:46:38.545Z,9.46
2023-03-20T09:49:30.595Z,9.55
2023-03-20T09:52:05.279Z,9.61
2023-03-20T09:54:53.544Z,9.58
2023-03-20T09:57:58.837Z,9.59
2023-03-20T10:00:28.894Z,9.68
2023-03-20T10:03:25.144Z,9.63
2023-03-20T10:06:01.727Z,9.60
2023-03-20T10:08:34.084Z,9.71
2023-03-20T10:11:27.715Z,9.80
2023-03-20T10:14:04.109Z,9.80
2023-03-20T10:16:53.637Z,9.89
2023-03-20T10:19:34.530Z,9.98
2023-03-20T10:22:11.591Z,10.06
2023-03-20T10:24:55.598Z,10.16
2023-03-20T10:27:28.092Z,10.16
2023-03-20T10:30:39.376Z,10.17
2023-03-20T10:33:51.209Z,10.12
2023-03-20T10:36:22.060Z,10.21
2023-03-20T10:39:16.707Z,10.24
2023-03-20T10:41:57.089Z,10.26
2023-03-20T10:44:31.977Z,10.25
2023-03-20T10:47:03.032Z,10.20
2023-03-20T10:49:30.962Z,10.25
2023-03-20T10:52:05.160Z,10.28
2023-03-20T10:54:42.455Z,10.29
2023-03-20T10:57:24.447Z,10.36
2023-03-20T10:59:52.582Z,10.48
2023-03-20T11:02:23.698Z,10.60
2023-03-20T11:04:51.137Z,10.53
2023-03-20T11:07:28.729Z,10.56
2023-03-20T11:10:07.959Z,10.66
2023-03-20T11:12:35.393Z,10.68
2023-03-20T11:15:14.592Z,10.70
2023-03-20T11:17:42.186Z,10.75
2023-03-20T11:20:13.965Z,10.73
2023-03-20T11:22:42.161Z,10.80
2023-03-20T11:25:23.829Z,10.75
2023-03-20T11:27:51.437Z,10.64
2023-03-20T11:30:18.403Z,10.63
2023-03-20T11:32:51.443Z,10.69
2023-03-20T11:35:17.980Z,10.65
2023-03-20T11:37:48.021Z,10.75
2023-03-20T11:40:34.245Z,10.82
2023-03-20T11:43:01.351Z,10.85
2023-03-20T11:45:35.724Z,10.85
2023-03-20T11:48:04.826Z,10.89
2023-03-20T11:50:43.086Z,10.94
2023-03-20T11:53:31.757Z,10.93
2023-03-20T11:56:22.934Z,11.00
2023-03-20T11:59:07.036Z,11.08
2023-03-20T12:01:49.216Z,11.08
2023-03-20T12:04:26.380Z,11.09
2023-03-20T12:07:05.143Z,11.00
2023-03-20T12:09:38.386Z,10.96
2023-03-20T12:12:15.475Z,11.01
2023-03-20T12:14:56.427Z,11.14
2023-03-20T12:17:51.244Z,11.18
2023-03-20T12:20:36.739Z,11.12
2023-03-20T12:23:09.683Z,11.09
2023-03-20T12:25:45.360Z,11.14
2023-03-20T12:28:18.729Z,11.25
2023-03-20T12:30:51.465Z,11.37
2023-03-20T12:33:34.450Z,11.27
2023-03-20T12:36:02.662Z,11.19
2023-03-20T12:38:34.494Z,11.26
2023-03-20T12:41:13.111Z,11.40
2023-03-20T12:44:10.292Z,11.42
2023-03-20T12:47:26.390Z,11.35
2023-03-20T12:50:17.424Z,11.40
2023-03-20T12:53:09.046Z,11.43
2023-03-20T12:56:03.923Z,11.45
2023-03-20T12:58:40.119Z,11.46
2023-03-20T13:01:19.163Z,11.39
2023-03-20T13:04:04.706Z,11.23
2023-03-20T13:06:54.553Z,11.16
2023-03-20T13:09:37.581Z,11.19
2023-03-20T13:12:29.506Z,11.16
2023-03-20T13:15:29.788Z,11.17
2023-03-20T13:18:16.215Z,11.28
2023-03-20T13:20:52.081Z,11.31
2023-03-20T13:23:40.053Z,11.22
2023-03-20T13:26:36.428Z,11.13
2023-03-20T13:29:12.886Z,11.11
2023-03-20T13:31:47.578Z,11.09
2023-03-20T13:34:33.565Z,11.09
2023-03-20T13:37:22.458Z,11.09
2023-03-20T13:40:16.817Z,10.95
2023-03-20T13:43:11.542Z,10.87
2023-03-20T13:45:41.718Z,10.77
2023-03-20T13:48:27.232Z,10.71
2023-03-20T13:51:02.223Z,10.65
2023-03-20T13:53:32.732Z,10.70
2023-03-20T13:56:15.549Z,10.72
2023-03-20T13:59:24.081Z,10.71
2023-03-20T14:02:00.850Z,10.70
2023-03-20T14:04:30.863Z,10.68
2023-03-20T14:06:58.344Z,10.60
2023-03-20T14:09:33.028Z,10.52
2023-03-20T14:12:07.434Z,10.45
2023-03-20T14:14:50.492Z,10.47
2023-03-20T14:17:20.794Z,10.46
2023-03-20T14:19:49.361Z,10.44
2023-03-20T14:22:22.484Z,10.49
2023-03-20T14:24:59.728Z,10.58
2023-03-20T14:27:43.890Z,10.60
2023-03-20T14:30:30.129Z,10.56
2023-03-20T14:33:05.817Z,10.57
2023-03-20T14:35:38.545Z,10.55
2023-03-20T14:38:20.159Z,10.54
2023-03-20T14:41:06.744Z,10.51
2023-03-20T14:43:42.936Z,10.49
2023-03-20T14:46:26.369Z,10.53
2023-03-20T14:48:55.301Z,10.55
2023-03-20T14:51:31.109Z,10.49
2023-03-20T14:54:25.470Z,10.47
2023-03-20T14:56:52.874Z,10.40
2023-03-20T14:59:22.951Z,10.31
2023-03-20T15:01:59.740Z,10.25
2023-03-20T15:04:35.089Z,10.16
2023-03-20T15:07:15.717Z,10.19
2023-03-20T15:09:47.897Z,10.21
2023-03-20T15:12:19.377Z,10.13
2023-03-20T15:15:00.991Z,10.17
2023-03-20T15:17:44.327Z,10.17
2023-03-20T15:20:29.133Z,10.09
2023-03-20T15:23:00.541Z,10.10
2023-03-20T15:25:44.016Z,10.12
2023-03-20T15:28:20.490Z,10.05
2023-03-20T15:30:50.644Z,10.11
2023-03-20T15:33:27.204Z,10.11
2023-03-20T15:35:55.302Z,9.98
2023-03-20T15:38:22.454Z,9.93
2023-03-20T15:40:51.419Z,9.88
2023-03-20T15:43:24.905Z,9.76
2023-03-20T15:46:14.191Z,9.72
2023-03-20T15:48:47.407Z,9.70
2023-03-20T15:51:14.848Z,9.65
2023-03-20T15:53:46.717Z,9.62
2023-03-20T15:56:18.985Z,9.57
2023-03-20T15:58:49.480Z,9.54
2023-03-20T16:01:19.953Z,9.52
2023-03-20T16:03:48.070Z,9.40
2023-03-20T16:06:19.944Z,9.41
2023-03-20T16:09:00.232Z,9.40
2023-03-20T16:11:39.876Z,9.29
2023-03-20T16:14:10.881Z,9.17
2023-03-20T16:16:38.436Z,9.13
2023-03-20T16:19:07.064Z,9.17
2023-03-20T16:21:40.799Z,9.26
2023-03-20T16:24:15.837Z,9.25
2023-03-20T16:26:48.273Z,8.98
2023-03-20T16:29:16.103Z,8.98
2023-03-20T16:31:55.766Z,8.90
2023-03-20T16:34:36.789Z,8.90
2023-03-20T16:37:08.893Z,8.91
2023-03-20T16:39:36.197Z,8.85
2023-03-20T16:42:22.587Z,8.89
2023-03-20T16:44:56.025Z,8.89
2023-03-20T16:47:41.411Z,8.81
2023-03-20T16:50:22.870Z,8.76
2023-03-20T16:52:58.491Z,8.77
2023-03-20T16:55:31.868Z,8.82
2023-03-20T16:58:03.456Z,8.76
2023-03-20T17:00:44.175Z,8.75
2023-03-20T17:03:27.192Z,8.63
2023-03-20T17:06:08.721Z,8.65
2023-03-20T17:08:42.628Z,8.68
2023-03-20T17:11:13.760Z,8.70
2023-03-20T17:13:41.384Z,8.62
2023-03-20T17:16:19.565Z,8.59
2023-03-20T17:18:48.465Z,8.55
2023-03-20T17:21:15.110Z,8.55
2023-03-20T17:23:42.085Z,8.50
2023-03-20T17:26:12.808Z,8.49
2023-03-20T17:28:40.303Z,8.40
2023-03-20T17:31:07.210Z,8.43
2023-03-20T17:33:34.741Z,8.43
2023-03-20T17:36:01.577Z,8.33
2023-03-20T17:38:28.860Z,8.33
2023-03-20T17:40:55.419Z,8.29
2023-03-20T17:43:22.715Z,8.29
2023-03-20T17:45:49.788Z,8.29
2023-03-20T17:48:21.478Z,8.24
2023-03-20T17:50:50.928Z,8.28
2023-03-20T17:53:20.821Z,8.24
2023-03-20T17:55:47.711Z,8.25
2023-03-20T17:58:16.534Z,8.21
2023-03-20T18:00:44.568Z,8.23
2023-03-20T18:03:11.762Z,8.21
2023-03-20T18:05:39.673Z,8.25
2023-03-20T18:08:12.937Z,8.21
2023-03-20T18:10:46.604Z,8.20
2023-03-20T18:13:13.339Z,8.16
2023-03-20T18:15:41.066Z,8.07
2023-03-20T18:18:08.681Z,8.09
2023-03-20T18:20:39.699Z,8.07
2023-03-20T18:23:07.027Z,8.07
2023-03-20T18:25:34.925Z,8.10
2023-03-20T18:28:05.600Z,8.08
2023-03-20T18:33:57.424Z,8.09
2023-03-20T18:36:25.017Z,8.08
2023-03-20T18:38:52.843Z,8.11
2023-03-20T18:41:20.772Z,8.04
2023-03-20T18:43:48.665Z,8.00
2023-03-20T18:46:24.060Z,8.08
2023-03-20T18:48:52.832Z,8.03
2023-03-20T18:51:20.824Z,8.06
2023-03-20T18:53:48.432Z,8.03
2023-03-20T18:56:20.311Z,7.94
2023-03-20T18:58:48.353Z,7.98
2023-03-20T19:01:16.108Z,7.96
2023-03-20T19:03:44.588Z,7.87
2023-03-20T19:06:17.245Z,7.86
2023-03-20T19:08:45.939Z,7.88
2023-03-20T19:11:17.860Z,7.86
2023-03-20T19:13:50.265Z,7.80
2023-03-20T19:16:24.996Z,7.72
2023-03-20T19:18:53.897Z,7.74
2023-03-20T19:21:25.994Z,7.70
2023-03-20T19:23:58.449Z,7.74
2023-03-20T19:26:27.299Z,7.81
2023-03-20T19:28:56.607Z,7.76
2023-03-20T19:31:24.650Z,7.78
2023-03-20T19:33:52.624Z,7.72
2023-03-20T19:36:24.123Z,7.80
2023-03-20T19:38:52.264Z,7.75
2023-03-20T19:41:20.097Z,7.68
2023-03-20T19:43:53.192Z,7.69
2023-03-20T19:46:39.797Z,7.68
2023-03-20T19:49:30.185Z,7.61
2023-03-20T19:51:57.776Z,7.64
2023-03-20T19:54:25.090Z,7.60
2023-03-20T19:56:51.811Z,7.60
2023-03-20T19:59:21.092Z,7.64
2023-03-20T20:01:51.210Z,7.61
2023-03-20T20:04:18.534Z,7.54
2023-03-20T20:06:47.492Z,7.59
2023-03-20T20:09:15.499Z,7.64
2023-03-20T20:11:42.400Z,7.59
2023-03-20T20:14:11.965Z,7.61
2023-03-20T20:16:42.767Z,7.59
2023-03-20T20:19:10.328Z,7.59
2023-03-20T20:24:24.364Z,7.53
2023-03-20T20:26:59.919Z,7.54
2023-03-20T20:29:41.815Z,7.52
2023-03-20T20:32:12.586Z,7.47
2023-03-20T20:40:24.475Z,7.45
2023-03-20T20:42:54.583Z,7.43
2023-03-20T20:45:31.414Z,7.46
2023-03-20T20:48:02.482Z,7.44
2023-03-20T20:50:32.097Z,7.49
2023-03-20T20:52:59.205Z,7.57
2023-03-20T20:55:26.548Z,7.55
2023-03-20T20:57:55.750Z,7.56
2023-03-20T21:00:37.073Z,7.57
2023-03-20T21:03:12.624Z,7.56
2023-03-20T21:05:42.877Z,7.62
2023-03-20T21:08:11.113Z,7.58
2023-03-20T21:10:38.048Z,7.61
2023-03-20T21:13:04.641Z,7.60
2023-03-20T21:15:31.808Z,7.64
2023-03-20T21:18:01.344Z,7.61
2023-03-20T21:20:30.402Z,7.60
2023-03-20T21:22:57.181Z,7.62
2023-03-20T21:25:38.625Z,7.64
2023-03-20T21:28:07.184Z,7.67
